Live aus Altenrhein
LIVE
LSZR 221120Z 36005KT 340V040 CAVOK 29/15 Q1017 NOSIG RMK I

People´s Info Center:

Öffnungszeiten Mo-Fr, 8-18 Uhr

 

info@peoples.ch

 
Aus Österreich:

T: +43 (0)5572 203 610

 

Aus CH / LI / DE:

T: +41 (0)71 858 51 60

 

Webcam Flughafen St.Gallen-Altenrhein

Live-Bilder und Zeitraffer LSZR / ACH.

 

Live aus Altenrhein
LIVE
LSZR 221120Z 36005KT 340V040 CAVOK 29/15 Q1017 NOSIG RMK I
Zeitraffer heute
2017-06-22 00:00:00
LSZR 212150Z AUTO 22002KT 9999 //////TCU 21/17 Q1017
Zeitraffer gestern
2017-06-21 00:14:53
LSZR 202150Z AUTO VRB01KT CAVOK 23/19 Q1017
Zeitraffer vor 3 Tagen
2017-06-19 00:00:00
LSZR 182150Z AUTO 22003KT CAVOK 18/11 Q1022